首页
METAR-TAF:

METAR-TAF

机场 :

Shaw Air Force Base

Sumter, 南卡罗来纳州, 美国

纬度: 33-58N, 经度: 080-29W, 海拔: 74米

当前天气观测

该预报发布于55分钟前的12:56 UTC
静风
温度 0°C
湿度 86%
气压 1028 hPa
能見度: 16.1公里
散云层高于25000英尺

METAR: KSSC 031256Z COR AUTO 00000KT 10SM SCT250 00/M02 A3037 RMK AO2A SLP288 T00031023 $ COR 1308

时间: 08:51 (13:51 UTC)

预报

该预报发布于5小时和51分钟前的08:00 UTC
预报有效从03日的 08点(UTC)到 04日的 14点(UTC)
风速6节,风向北转东北
能见度10公里或以上
散云层高于25000英尺
成为
从 04日的 03点(UTC)到 04日的 04点(UTC)
风速6节,风向多变
能见度10公里或以上
散云层高于12000英尺
多云层高于25000英尺
成为
从 04日的 07点(UTC)到 04日的 08点(UTC)
风速6节,风向多变
能见度10公里或以上
多云层高于3000英尺
阴天层高于15000英尺

TAF: KSSC 030800Z 0308/0414 03006KT 9999 SCT250 QNH3028INS BECMG 0403/0404 VRB06KT 9999 SCT120 BKN250 QNH3023INS BECMG 0407/0408 VRB06KT 9999 BKN030 OVC150 QNH3017INS TX14/0320Z TNM01/0311Z

超过4000个机场的气象观测和天气预报(METAR&TAF报告)。

可查询的气象台以黄色和红色小点在地图上表示。

将鼠标移到小点上方,可查看气象台名称。

然后点击查看天气观测和预报。

如需切换地图:点击带黑十字的绿色按钮放大地图;点击带横线的绿色按钮缩小地图;或者点击绿色箭头查看邻近地区的地图。


METAR-TAF: